Time;durP1;ratioP1;P1;durP2;ratioP2;P2;SDS_P1;SDS_P2;PMS_P1;PMS_P2;Temp;Humidity;BMP_temperature;BMP_pressure;BME280_temperature;BME280_humidity;BME280_pressure;Samples;Min_cycle;Max_cycle;Signal;HPM_P1;HPM_P2
2023/12/08 00:01:50;;;;;;;30.55;16.35;;;2.80;99.90;;;;;;5014897;28;20033;-91
2023/12/08 00:04:15;;;;;;;30.05;17.50;;;2.80;99.90;;;;;;5014616;28;20122;-90
2023/12/08 00:06:41;;;;;;;28.92;15.57;;;2.90;99.90;;;;;;5012213;28;20037;-90
2023/12/08 00:09:07;;;;;;;27.20;15.40;;;2.90;99.90;;;;;;5012556;28;20037;-91
2023/12/08 00:11:32;;;;;;;31.05;16.48;;;2.90;99.90;;;;;;5029730;28;20038;-90
2023/12/08 00:13:58;;;;;;;28.63;16.40;;;2.90;99.90;;;;;;5014870;28;20049;-91
2023/12/08 00:16:24;;;;;;;30.77;17.27;;;2.90;99.90;;;;;;5013485;28;20026;-90
2023/12/08 00:18:50;;;;;;;29.42;16.65;;;2.90;99.90;;;;;;5014731;28;20034;-90
2023/12/08 00:21:16;;;;;;;30.13;16.65;;;2.90;99.90;;;;;;5013280;28;20022;-90
2023/12/08 00:23:41;;;;;;;33.60;18.08;;;2.90;99.90;;;;;;5013751;28;20033;-89
2023/12/08 00:26:07;;;;;;;28.92;15.95;;;2.90;99.90;;;;;;5011436;28;20508;-89
2023/12/08 00:28:33;;;;;;;32.10;16.48;;;2.90;99.90;;;;;;5013536;28;20112;-90
2023/12/08 00:30:58;;;;;;;31.70;16.35;;;2.90;99.90;;;;;;5014594;28;20029;-89
2023/12/08 00:33:24;;;;;;;30.17;16.00;;;2.80;99.90;;;;;;5011997;28;20125;-89
2023/12/08 00:35:49;;;;;;;29.58;15.63;;;2.90;99.90;;;;;;5011504;28;20029;-89
2023/12/08 00:38:15;;;;;;;32.25;17.38;;;2.90;99.90;;;;;;5005215;28;20070;-91
2023/12/08 00:40:41;;;;;;;28.20;15.63;;;2.90;99.90;;;;;;5012517;28;20083;-90
2023/12/08 00:43:07;;;;;;;27.58;15.13;;;2.90;99.90;;;;;;5013050;28;20088;-89
2023/12/08 00:45:32;;;;;;;28.13;15.77;;;2.90;99.90;;;;;;5020608;28;20026;-89
2023/12/08 00:47:58;;;;;;;32.65;17.23;;;2.90;99.90;;;;;;5006447;28;20033;-90
2023/12/08 00:50:23;;;;;;;27.63;15.98;;;2.90;99.90;;;;;;5013169;28;20117;-89
2023/12/08 00:52:49;;;;;;;32.67;15.60;;;2.90;99.90;;;;;;5010007;28;20034;-90
2023/12/08 00:55:15;;;;;;;27.50;15.57;;;2.90;99.90;;;;;;5008427;28;20029;-90
2023/12/08 00:57:40;;;;;;;30.13;16.20;;;2.90;99.90;;;;;;5012076;28;20026;-90
2023/12/08 01:00:06;;;;;;;23.95;14.68;;;3.00;99.90;;;;;;5013526;28;20018;-90
2023/12/08 01:02:32;;;;;;;28.13;16.13;;;3.00;99.90;;;;;;5012458;28;20468;-90
2023/12/08 01:04:57;;;;;;;28.00;15.57;;;3.00;99.90;;;;;;5013361;28;20065;-89
2023/12/08 01:07:23;;;;;;;24.40;14.50;;;3.00;99.90;;;;;;5013167;28;20042;-89
2023/12/08 01:09:49;;;;;;;25.52;14.88;;;3.00;99.90;;;;;;5028459;28;20486;-90
2023/12/08 01:12:15;;;;;;;26.50;15.00;;;2.90;99.90;;;;;;5022379;28;20058;-90
2023/12/08 01:14:40;;;;;;;24.35;14.18;;;3.00;99.90;;;;;;5013537;28;20113;-90
2023/12/08 01:17:06;;;;;;;22.65;13.50;;;3.00;99.90;;;;;;5013201;28;20030;-90
2023/12/08 01:19:32;;;;;;;22.42;14.05;;;3.00;99.90;;;;;;5011750;28;20766;-90
2023/12/08 01:21:57;;;;;;;24.13;14.15;;;3.00;99.90;;;;;;5012761;28;20041;-90
2023/12/08 01:24:24;;;;;;;23.65;14.00;;;3.00;99.90;;;;;;5012867;28;20053;-90
2023/12/08 01:26:49;;;;;;;26.95;14.73;;;3.00;99.90;;;;;;5007480;28;20096;-90
2023/12/08 01:29:15;;;;;;;26.05;14.02;;;3.00;99.90;;;;;;5012152;28;20022;-91
2023/12/08 01:31:40;;;;;;;26.10;14.60;;;3.00;99.90;;;;;;5012868;28;20402;-90
2023/12/08 01:34:06;;;;;;;23.63;13.98;;;3.00;99.90;;;;;;5012517;28;20025;-89
2023/12/08 01:36:32;;;;;;;25.70;14.68;;;3.00;99.90;;;;;;5011087;28;20034;-90
2023/12/08 01:38:58;;;;;;;22.70;14.23;;;3.00;99.90;;;;;;5009459;28;20105;-89
2023/12/08 01:41:23;;;;;;;24.35;13.27;;;3.00;99.90;;;;;;5010552;28;20030;-91
2023/12/08 01:43:49;;;;;;;29.13;15.68;;;3.00;99.90;;;;;;5014426;28;20030;-90
2023/12/08 01:46:17;;;;;;;26.30;14.75;;;3.00;99.90;;;;;;5040426;28;20030;-90
2023/12/08 01:48:43;;;;;;;25.52;13.73;;;3.00;99.90;;;;;;5010719;28;20022;-90
2023/12/08 01:51:11;;;;;;;25.40;14.98;;;3.00;99.90;;;;;;5017996;28;20041;-90
2023/12/08 01:53:37;;;;;;;25.17;13.60;;;3.10;99.90;;;;;;5006424;28;20555;-90
2023/12/08 01:56:04;;;;;;;25.23;14.00;;;3.10;99.90;;;;;;5007531;28;20022;-90
2023/12/08 01:58:29;;;;;;;23.88;14.05;;;3.10;99.90;;;;;;5011444;28;20022;-90
2023/12/08 02:00:57;;;;;;;23.20;14.10;;;3.10;99.90;;;;;;5009285;28;20022;-90
2023/12/08 02:03:25;;;;;;;24.48;14.73;;;3.10;99.90;;;;;;5028072;28;20022;-90
2023/12/08 02:05:50;;;;;;;21.20;12.93;;;3.10;99.90;;;;;;5011691;28;20068;-90
2023/12/08 02:08:17;;;;;;;25.33;14.35;;;3.10;99.90;;;;;;5009119;28;21028;-90
2023/12/08 02:10:43;;;;;;;23.67;14.40;;;3.10;99.90;;;;;;5012827;28;20037;-89
2023/12/08 02:13:11;;;;;;;25.70;13.57;;;3.10;99.90;;;;;;5008652;28;20023;-90
2023/12/08 02:15:37;;;;;;;24.33;14.30;;;3.10;99.90;;;;;;5012341;28;20033;-90
2023/12/08 02:18:03;;;;;;;24.90;13.90;;;3.10;99.90;;;;;;5011958;28;20032;-90
2023/12/08 02:20:29;;;;;;;22.10;13.63;;;3.10;99.90;;;;;;5011593;28;20026;-89
2023/12/08 02:22:55;;;;;;;23.70;13.95;;;3.00;99.90;;;;;;5011513;28;20029;-89
2023/12/08 02:25:20;;;;;;;22.60;13.65;;;3.00;99.90;;;;;;5008889;28;20022;-89
2023/12/08 02:27:46;;;;;;;26.98;14.45;;;3.00;99.90;;;;;;5006052;28;20127;-88
2023/12/08 02:30:12;;;;;;;25.02;13.90;;;3.00;99.90;;;;;;5004082;28;20033;-88
2023/12/08 02:32:56;;;;;;;21.42;13.63;;;3.00;99.90;;;;;;5002394;28;20065;-87
2023/12/08 02:35:23;;;;;;;22.35;13.23;;;2.90;99.90;;;;;;5010132;28;20030;-88
2023/12/08 02:37:51;;;;;;;23.58;13.68;;;2.90;99.90;;;;;;5001995;28;20061;-87
2023/12/08 02:40:17;;;;;;;21.20;13.35;;;2.90;99.90;;;;;;5026983;28;20026;-88
2023/12/08 02:42:43;;;;;;;24.50;13.63;;;2.90;99.90;;;;;;5004635;28;20033;-87
2023/12/08 02:45:09;;;;;;;26.38;14.98;;;2.90;99.90;;;;;;5009578;28;20026;-87
2023/12/08 02:47:35;;;;;;;26.08;14.07;;;2.90;99.90;;;;;;5004701;28;20041;-88
2023/12/08 02:50:00;;;;;;;20.67;13.00;;;2.90;99.90;;;;;;5008796;28;20032;-87
2023/12/08 02:52:26;;;;;;;27.05;13.88;;;2.90;99.90;;;;;;5006528;28;20246;-86
2023/12/08 02:54:51;;;;;;;26.58;14.73;;;2.90;99.90;;;;;;5010153;28;20544;-87
2023/12/08 02:57:17;;;;;;;25.48;15.02;;;2.90;99.90;;;;;;5008155;28;20030;-87
2023/12/08 02:59:42;;;;;;;27.10;14.48;;;2.90;99.90;;;;;;5011195;28;20080;-87
2023/12/08 03:02:08;;;;;;;26.38;14.40;;;2.90;99.90;;;;;;5010469;28;20386;-87
2023/12/08 03:04:33;;;;;;;24.13;13.18;;;2.80;99.90;;;;;;5012460;28;20025;-87
2023/12/08 03:06:59;;;;;;;27.95;15.45;;;2.80;99.90;;;;;;5010649;28;20042;-87
2023/12/08 03:09:25;;;;;;;25.52;14.70;;;2.80;99.90;;;;;;5026183;28;20026;-86
2023/12/08 03:11:50;;;;;;;24.33;13.68;;;2.80;99.90;;;;;;5026413;28;20541;-87
2023/12/08 03:14:16;;;;;;;25.20;13.88;;;2.80;99.90;;;;;;5009065;28;20132;-87
2023/12/08 03:16:41;;;;;;;23.48;14.25;;;2.80;99.90;;;;;;5008296;28;20077;-87
2023/12/08 03:19:07;;;;;;;25.75;14.60;;;2.80;99.90;;;;;;5041049;28;20026;-87
2023/12/08 03:21:32;;;;;;;27.27;14.45;;;2.70;99.90;;;;;;5009898;28;20034;-87
2023/12/08 03:23:58;;;;;;;24.92;14.15;;;2.70;99.90;;;;;;5009135;28;20061;-87
2023/12/08 03:26:23;;;;;;;28.25;15.38;;;2.70;99.90;;;;;;5008339;28;20025;-88
2023/12/08 03:28:49;;;;;;;25.88;15.23;;;2.70;99.90;;;;;;5009935;28;20025;-86
2023/12/08 03:31:29;;;;;;;29.25;15.02;;;2.70;99.90;;;;;;5011980;28;20077;-87
2023/12/08 03:33:55;;;;;;;28.52;15.43;;;2.70;99.90;;;;;;5009274;28;20026;-88
2023/12/08 03:36:21;;;;;;;27.30;15.90;;;2.70;99.90;;;;;;5010210;28;20117;-88
2023/12/08 03:38:46;;;;;;;27.15;15.88;;;2.70;99.90;;;;;;5004273;28;20584;-89
2023/12/08 03:41:12;;;;;;;32.13;15.70;;;2.70;99.90;;;;;;5026662;28;20621;-89
2023/12/08 03:43:38;;;;;;;29.90;16.55;;;2.70;99.90;;;;;;5005760;28;20038;-88
2023/12/08 03:46:07;;;;;;;30.55;16.75;;;2.70;99.90;;;;;;5008247;28;20080;-88
2023/12/08 03:48:36;;;;;;;28.70;15.82;;;2.70;99.90;;;;;;5026957;28;20033;-89
2023/12/08 03:51:03;;;;;;;29.20;15.32;;;2.70;99.90;;;;;;5010555;28;20363;-88
2023/12/08 03:53:28;;;;;;;27.25;14.52;;;2.80;99.90;;;;;;5007712;28;20486;-89
2023/12/08 03:55:54;;;;;;;28.90;15.73;;;2.70;99.90;;;;;;5001680;28;20058;-89
2023/12/08 03:58:19;;;;;;;26.15;15.02;;;2.70;99.90;;;;;;5009203;28;20475;-89
2023/12/08 04:00:45;;;;;;;29.30;15.90;;;2.70;99.90;;;;;;5027324;28;20048;-88
2023/12/08 04:03:10;;;;;;;28.48;16.65;;;2.70;99.90;;;;;;5010820;28;20093;-89
2023/12/08 04:05:36;;;;;;;32.75;16.75;;;2.70;99.90;;;;;;5010336;28;20057;-89
2023/12/08 04:08:04;;;;;;;26.42;16.25;;;2.70;99.90;;;;;;5010578;28;20021;-88
2023/12/08 04:10:30;;;;;;;29.27;16.33;;;2.70;99.90;;;;;;5022354;28;20021;-88
2023/12/08 04:12:56;;;;;;;30.60;17.17;;;2.70;99.90;;;;;;5026734;28;20494;-88
2023/12/08 04:15:22;;;;;;;30.85;17.73;;;2.80;99.90;;;;;;5007741;28;20025;-87
2023/12/08 04:17:47;;;;;;;31.52;16.67;;;2.70;99.90;;;;;;5011835;28;20109;-86
2023/12/08 04:20:13;;;;;;;32.85;18.08;;;2.80;99.90;;;;;;5003941;28;20030;-88
2023/12/08 04:22:39;;;;;;;32.25;16.55;;;2.70;99.90;;;;;;5009721;28;20491;-87
2023/12/08 04:25:05;;;;;;;33.33;17.70;;;2.70;99.90;;;;;;5008384;28;20466;-88
2023/12/08 04:27:30;;;;;;;32.47;15.65;;;2.70;99.90;;;;;;5003654;28;20023;-88
2023/12/08 04:29:56;;;;;;;33.50;16.90;;;2.80;99.90;;;;;;5009618;28;20051;-88
2023/12/08 04:32:21;;;;;;;32.67;16.80;;;2.70;99.90;;;;;;5025861;28;20085;-90
2023/12/08 04:34:47;;;;;;;33.95;18.35;;;2.70;99.90;;;;;;5009837;28;20030;-90
2023/12/08 04:37:13;;;;;;;31.10;16.52;;;2.70;99.90;;;;;;5010764;28;20107;-89
2023/12/08 04:39:38;;;;;;;31.10;17.15;;;2.70;99.90;;;;;;5009205;28;20022;-89
2023/12/08 04:42:04;;;;;;;31.33;17.75;;;2.70;99.90;;;;;;5012832;28;20045;-90
2023/12/08 04:44:30;;;;;;;32.35;17.27;;;2.70;99.90;;;;;;5010367;28;20482;-90
2023/12/08 04:46:55;;;;;;;30.05;16.58;;;2.70;99.90;;;;;;5011625;28;20038;-90
2023/12/08 04:49:21;;;;;;;35.42;18.50;;;2.70;99.90;;;;;;5012525;28;20037;-90
2023/12/08 04:51:46;;;;;;;34.30;18.73;;;2.70;99.90;;;;;;5012915;28;20045;-90
2023/12/08 04:54:12;;;;;;;33.17;17.42;;;2.80;99.90;;;;;;5007014;28;20027;-90
2023/12/08 04:56:38;;;;;;;38.70;20.13;;;2.80;99.90;;;;;;5006330;28;20034;-90
2023/12/08 04:59:04;;;;;;;34.55;19.88;;;2.80;99.90;;;;;;5011496;28;20045;-89
2023/12/08 05:01:30;;;;;;;35.50;19.20;;;2.80;99.90;;;;;;5009400;28;20580;-90
2023/12/08 05:03:55;;;;;;;38.30;20.00;;;2.70;99.90;;;;;;5013106;28;20116;-90
2023/12/08 05:06:24;;;;;;;36.22;19.52;;;2.70;99.90;;;;;;5012376;28;20104;-90
2023/12/08 05:08:50;;;;;;;34.05;19.63;;;2.70;99.90;;;;;;5007707;28;20138;-89
2023/12/08 05:11:16;;;;;;;37.65;19.15;;;2.70;99.90;;;;;;5010380;28;20116;-90
2023/12/08 05:13:41;;;;;;;38.33;19.25;;;2.70;99.90;;;;;;5013956;28;20028;-90
2023/12/08 05:16:11;;;;;;;35.67;18.85;;;2.70;99.90;;;;;;5012923;28;20459;-90
2023/12/08 05:18:36;;;;;;;40.42;20.65;;;2.80;99.90;;;;;;5013346;28;20029;-91
2023/12/08 05:21:02;;;;;;;38.35;20.40;;;2.80;99.90;;;;;;5010526;28;20026;-90
2023/12/08 05:23:28;;;;;;;36.70;19.55;;;2.80;99.90;;;;;;5029452;28;20124;-90
2023/12/08 05:25:53;;;;;;;38.88;18.73;;;2.80;99.90;;;;;;5029646;28;20077;-90
2023/12/08 05:28:19;;;;;;;38.40;20.13;;;2.80;99.90;;;;;;5027638;28;20026;-90
2023/12/08 05:30:44;;;;;;;36.83;18.88;;;2.80;99.90;;;;;;5011133;28;20059;-90
2023/12/08 05:33:10;;;;;;;37.53;18.90;;;2.80;99.90;;;;;;5010208;28;20040;-90
2023/12/08 05:35:35;;;;;;;38.70;20.27;;;2.80;99.90;;;;;;5013048;28;20029;-91
2023/12/08 05:38:01;;;;;;;38.70;20.00;;;2.80;99.90;;;;;;5013229;28;20026;-90
2023/12/08 05:40:27;;;;;;;37.83;19.02;;;2.80;99.90;;;;;;5027610;28;20029;-90
2023/12/08 05:42:52;;;;;;;35.83;18.70;;;2.80;99.90;;;;;;5023306;28;20394;-91
2023/12/08 05:45:18;;;;;;;37.58;20.75;;;2.80;99.90;;;;;;5008507;28;20025;-90
2023/12/08 05:47:44;;;;;;;41.00;21.13;;;2.80;99.90;;;;;;5031444;28;20589;-90
2023/12/08 05:50:10;;;;;;;38.47;19.75;;;2.80;99.90;;;;;;5013006;28;20054;-89
2023/12/08 05:52:36;;;;;;;36.95;19.85;;;2.80;99.90;;;;;;5013372;28;20111;-90
2023/12/08 05:55:02;;;;;;;33.17;18.55;;;2.90;99.90;;;;;;5013784;28;20491;-91
2023/12/08 05:57:28;;;;;;;33.30;18.30;;;2.80;99.90;;;;;;5036293;28;20398;-90
2023/12/08 05:59:53;;;;;;;38.63;20.20;;;2.90;99.90;;;;;;5010496;28;20029;-90
2023/12/08 06:02:19;;;;;;;36.75;19.92;;;2.90;99.90;;;;;;5025165;28;20072;-91
2023/12/08 06:04:45;;;;;;;37.10;20.83;;;2.90;99.90;;;;;;5012001;28;20018;-91
2023/12/08 06:07:10;;;;;;;36.15;20.40;;;2.90;99.90;;;;;;5021064;28;20053;-91
2023/12/08 06:09:36;;;;;;;36.78;19.30;;;2.90;99.90;;;;;;5028589;28;20071;-91
2023/12/08 06:12:02;;;;;;;38.47;20.17;;;2.90;99.90;;;;;;5007611;28;20125;-91
2023/12/08 06:14:28;;;;;;;35.53;18.52;;;2.90;99.90;;;;;;5004941;28;20484;-91
2023/12/08 06:16:53;;;;;;;34.42;18.10;;;2.90;99.90;;;;;;5010766;28;20030;-91
2023/12/08 06:19:19;;;;;;;35.25;18.33;;;2.90;99.90;;;;;;5018444;28;20030;-91
2023/12/08 06:21:44;;;;;;;42.13;21.10;;;3.00;99.90;;;;;;5037187;28;20535;-90
2023/12/08 06:24:10;;;;;;;35.20;18.40;;;3.00;99.90;;;;;;5011532;28;20033;-90
2023/12/08 06:26:38;;;;;;;40.65;18.95;;;3.00;99.90;;;;;;5010941;28;20041;-92
2023/12/08 06:29:04;;;;;;;33.80;17.10;;;3.00;99.90;;;;;;5010146;28;20027;-91
2023/12/08 06:31:32;;;;;;;30.33;17.05;;;2.90;99.90;;;;;;5002964;28;20091;-91
2023/12/08 06:33:58;;;;;;;38.50;19.05;;;3.00;99.90;;;;;;5029890;28;20026;-90
2023/12/08 06:36:24;;;;;;;36.42;18.58;;;3.00;99.90;;;;;;5010341;28;20037;-91
2023/12/08 06:38:49;;;;;;;36.80;18.10;;;3.00;99.90;;;;;;5006932;28;20030;-91
2023/12/08 06:41:15;;;;;;;39.33;19.02;;;3.00;99.90;;;;;;5010553;28;20134;-91
2023/12/08 06:43:40;;;;;;;37.40;17.45;;;3.00;99.90;;;;;;5029412;28;20467;-91
2023/12/08 06:46:06;;;;;;;35.80;18.63;;;3.10;99.90;;;;;;5007255;28;20034;-91
2023/12/08 06:48:32;;;;;;;34.63;17.73;;;3.00;99.90;;;;;;5027805;28;20080;-90
2023/12/08 06:50:57;;;;;;;34.00;17.02;;;3.10;99.90;;;;;;5030109;28;20030;-91
2023/12/08 06:53:23;;;;;;;32.75;18.33;;;3.10;99.90;;;;;;5006995;28;20038;-91
2023/12/08 06:55:48;;;;;;;33.53;18.02;;;3.10;99.90;;;;;;5024198;28;20037;-90
2023/12/08 06:58:14;;;;;;;38.10;18.88;;;3.10;99.90;;;;;;5011096;28;20040;-91
2023/12/08 07:00:39;;;;;;;32.92;17.63;;;3.20;99.90;;;;;;5005341;28;20033;-91
2023/12/08 07:03:05;;;;;;;36.42;17.95;;;3.20;99.90;;;;;;5009921;28;20036;-90
2023/12/08 07:05:31;;;;;;;33.20;18.00;;;3.10;99.90;;;;;;5006785;28;20380;-90
2023/12/08 07:07:57;;;;;;;33.72;17.88;;;3.20;99.90;;;;;;5008873;28;20037;-89
2023/12/08 07:10:23;;;;;;;38.03;18.13;;;3.20;99.90;;;;;;5028770;28;20450;-90
2023/12/08 07:12:49;;;;;;;34.42;17.58;;;3.20;99.90;;;;;;5028904;28;20038;-90
2023/12/08 07:15:14;;;;;;;37.10;18.55;;;3.20;99.90;;;;;;5010243;28;20022;-91
2023/12/08 07:17:40;;;;;;;37.88;18.13;;;3.20;99.90;;;;;;5010991;28;20038;-91
2023/12/08 07:20:09;;;;;;;36.67;18.88;;;3.20;99.90;;;;;;5027003;28;20037;-90
2023/12/08 07:22:36;;;;;;;34.10;17.15;;;3.20;99.90;;;;;;5010229;28;20389;-91
2023/12/08 07:25:05;;;;;;;36.17;17.50;;;3.20;99.90;;;;;;5009105;28;20390;-91
2023/12/08 07:27:31;;;;;;;37.78;17.63;;;3.20;99.90;;;;;;5027362;28;20033;-90
2023/12/08 07:29:57;;;;;;;39.45;19.30;;;3.20;99.90;;;;;;5002039;28;20109;-92
2023/12/08 07:32:24;;;;;;;43.55;19.52;;;3.20;99.90;;;;;;5003314;28;20454;-90
2023/12/08 07:34:50;;;;;;;38.65;18.02;;;3.20;99.90;;;;;;5012589;28;20022;-89
2023/12/08 07:37:16;;;;;;;37.42;18.27;;;3.30;99.90;;;;;;5011806;28;20109;-90
2023/12/08 07:39:41;;;;;;;39.90;18.02;;;3.30;99.90;;;;;;5011789;28;20026;-90
2023/12/08 07:42:07;;;;;;;35.33;17.48;;;3.30;99.90;;;;;;5011378;28;20033;-89
2023/12/08 07:44:34;;;;;;;40.95;19.00;;;3.30;99.90;;;;;;5008403;28;20026;-90
2023/12/08 07:47:00;;;;;;;39.80;18.52;;;3.30;99.90;;;;;;5010781;28;20030;-91
2023/12/08 07:49:26;;;;;;;39.30;18.42;;;3.30;99.90;;;;;;5009480;28;20022;-90
2023/12/08 07:51:51;;;;;;;41.10;19.70;;;3.40;99.90;;;;;;5009780;28;20042;-90
2023/12/08 07:54:17;;;;;;;40.30;19.27;;;3.30;99.90;;;;;;5009616;28;20041;-90
2023/12/08 07:56:42;;;;;;;44.47;20.27;;;3.40;99.90;;;;;;5004578;28;20026;-90
2023/12/08 07:59:08;;;;;;;42.83;20.52;;;3.40;99.90;;;;;;5031812;28;20111;-90
2023/12/08 08:01:35;;;;;;;42.97;21.80;;;3.40;99.90;;;;;;5005314;28;20026;-90
2023/12/08 08:04:01;;;;;;;50.17;21.23;;;3.50;99.90;;;;;;5001969;28;20042;-90
2023/12/08 08:06:26;;;;;;;37.20;19.95;;;3.40;99.90;;;;;;5023057;28;20104;-90
2023/12/08 08:08:52;;;;;;;37.60;20.08;;;3.50;99.90;;;;;;5015139;28;20022;-91
2023/12/08 08:11:17;;;;;;;45.97;21.35;;;3.40;99.90;;;;;;5022468;28;20060;-90
2023/12/08 08:13:43;;;;;;;48.40;22.02;;;3.50;99.90;;;;;;5007295;28;20019;-90
2023/12/08 08:16:08;;;;;;;58.10;24.27;;;3.50;99.90;;;;;;5030206;28;20076;-90
2023/12/08 08:18:34;;;;;;;52.53;22.35;;;3.50;99.90;;;;;;5017219;28;20371;-90
2023/12/08 08:20:59;;;;;;;47.03;20.95;;;3.50;99.90;;;;;;5014858;28;20041;-90
2023/12/08 08:23:25;;;;;;;47.83;20.98;;;3.50;99.90;;;;;;5031028;28;20529;-91
2023/12/08 08:25:51;;;;;;;54.25;22.95;;;3.50;99.90;;;;;;5033472;28;20430;-90
2023/12/08 08:28:18;;;;;;;45.45;20.10;;;3.60;99.90;;;;;;5016820;28;20036;-90
2023/12/08 08:30:44;;;;;;;50.05;21.05;;;3.60;99.90;;;;;;5013401;28;20420;-90
2023/12/08 08:33:10;;;;;;;43.17;21.98;;;3.60;99.90;;;;;;5017765;28;20037;-89
2023/12/08 08:35:36;;;;;;;53.75;22.35;;;3.70;99.90;;;;;;5011429;28;20108;-90
2023/12/08 08:38:01;;;;;;;45.03;20.88;;;3.60;99.90;;;;;;5019436;28;20029;-89
2023/12/08 08:40:27;;;;;;;41.17;20.20;;;3.70;99.90;;;;;;5013750;28;20034;-90
2023/12/08 08:42:53;;;;;;;49.38;21.55;;;3.70;99.90;;;;;;5014755;28;20018;-89
2023/12/08 08:45:19;;;;;;;45.13;21.50;;;3.70;99.90;;;;;;5013862;28;20397;-89
2023/12/08 08:47:45;;;;;;;57.95;23.77;;;3.70;99.90;;;;;;5014593;28;20029;-90
2023/12/08 08:50:11;;;;;;;70.18;26.10;;;3.80;99.90;;;;;;5019957;28;20030;-90
2023/12/08 08:52:36;;;;;;;54.97;22.67;;;3.80;99.90;;;;;;5013194;28;20057;-89
2023/12/08 08:55:04;;;;;;;46.22;21.08;;;3.80;99.90;;;;;;5013548;28;20048;-89
2023/12/08 08:57:29;;;;;;;51.63;22.17;;;3.80;99.90;;;;;;5012195;28;20026;-89
2023/12/08 08:59:55;;;;;;;57.95;23.23;;;3.80;99.90;;;;;;5013313;28;20445;-90
2023/12/08 09:02:21;;;;;;;45.20;20.20;;;3.90;99.90;;;;;;5014046;28;20083;-89
2023/12/08 09:04:46;;;;;;;52.13;22.27;;;3.90;99.90;;;;;;5012002;28;20496;-90
2023/12/08 09:07:12;;;;;;;46.15;21.23;;;3.90;99.90;;;;;;5011731;28;20072;-89
2023/12/08 09:09:38;;;;;;;49.15;21.40;;;3.90;99.90;;;;;;5010487;28;20018;-90
2023/12/08 09:12:04;;;;;;;49.70;22.33;;;4.00;99.90;;;;;;5013883;28;20099;-89
2023/12/08 09:14:30;;;;;;;45.00;22.50;;;4.00;99.90;;;;;;5013042;28;20474;-89
2023/12/08 09:16:56;;;;;;;52.55;22.13;;;4.00;99.90;;;;;;5012798;28;20069;-89
2023/12/08 09:19:22;;;;;;;57.97;24.48;;;4.00;99.90;;;;;;5010341;28;20049;-89
2023/12/08 09:21:47;;;;;;;66.68;25.85;;;4.00;99.90;;;;;;5010063;28;20035;-88
2023/12/08 09:24:13;;;;;;;58.72;25.60;;;4.10;99.90;;;;;;5013031;28;20018;-89
2023/12/08 09:26:39;;;;;;;64.00;26.38;;;4.10;99.90;;;;;;5007093;28;20473;-90
2023/12/08 09:29:04;;;;;;;65.32;27.38;;;4.10;99.90;;;;;;5006508;28;20509;-89
2023/12/08 09:31:30;;;;;;;70.35;27.95;;;4.20;99.90;;;;;;5011878;28;20042;-90
2023/12/08 09:33:57;;;;;;;74.60;29.58;;;4.20;99.90;;;;;;5012595;28;20045;-90
2023/12/08 09:36:23;;;;;;;71.80;29.65;;;4.20;99.90;;;;;;5013225;28;20498;-90
2023/12/08 09:38:48;;;;;;;70.40;31.75;;;4.30;99.90;;;;;;5012970;28;20029;-90
2023/12/08 09:41:15;;;;;;;66.25;28.73;;;4.30;99.90;;;;;;5010292;28;20034;-88
2023/12/08 09:44:02;;;;;;;79.95;30.75;;;4.30;99.90;;;;;;5012505;28;20025;-90
2023/12/08 09:46:30;;;;;;;79.70;33.15;;;4.40;99.90;;;;;;5012262;28;20026;-90
2023/12/08 09:48:58;;;;;;;77.50;32.72;;;4.40;99.90;;;;;;5012116;28;20830;-91
2023/12/08 09:51:25;;;;;;;83.18;33.20;;;4.50;99.90;;;;;;5008576;28;20032;-90
2023/12/08 09:53:51;;;;;;;84.30;33.13;;;4.50;99.90;;;;;;5010142;28;20030;-91
2023/12/08 09:56:18;;;;;;;97.75;34.35;;;4.50;99.90;;;;;;5015731;28;20060;-90
2023/12/08 09:58:45;;;;;;;93.40;36.80;;;4.60;99.90;;;;;;5014452;28;20025;-90
2023/12/08 10:01:13;;;;;;;97.65;36.50;;;4.60;99.90;;;;;;5011488;28;20029;-91
2023/12/08 10:03:40;;;;;;;95.88;35.70;;;4.70;99.90;;;;;;5009559;28;20034;-90
2023/12/08 10:06:07;;;;;;;101.60;36.63;;;4.70;99.90;;;;;;5008982;28;20049;-90
2023/12/08 10:08:34;;;;;;;121.47;41.88;;;4.80;99.90;;;;;;5011605;28;20043;-90
2023/12/08 10:10:59;;;;;;;107.10;38.78;;;4.80;99.90;;;;;;5020824;28;20028;-90
2023/12/08 10:13:26;;;;;;;100.45;36.38;;;4.80;99.90;;;;;;5011520;28;20069;-90
2023/12/08 10:15:51;;;;;;;120.75;39.75;;;4.90;99.90;;;;;;5033774;28;20030;-90
2023/12/08 10:18:27;;;;;;;107.68;37.17;;;4.90;99.90;;;;;;5012440;28;20045;-91
2023/12/08 10:21:16;;;;;;;109.78;36.85;;;5.00;99.90;;;;;;5012749;28;20030;-90
2023/12/08 10:23:45;;;;;;;121.38;39.25;;;5.10;99.90;;;;;;5007481;28;20075;-89
2023/12/08 10:26:16;;;;;;;94.28;36.72;;;5.10;99.90;;;;;;5007344;28;20023;-89
2023/12/08 10:28:42;;;;;;;124.63;39.17;;;5.20;99.90;;;;;;5012335;28;20038;-89
2023/12/08 10:31:09;;;;;;;115.82;39.90;;;5.20;99.90;;;;;;5011921;28;20551;-90
2023/12/08 10:33:34;;;;;;;110.07;37.92;;;5.30;99.90;;;;;;5006403;28;20018;-89
2023/12/08 10:36:00;;;;;;;112.95;38.25;;;5.30;99.90;;;;;;5033768;28;20391;-90
2023/12/08 10:38:26;;;;;;;113.70;39.67;;;5.40;99.90;;;;;;5011605;28;20497;-89
2023/12/08 10:40:55;;;;;;;131.75;41.47;;;5.50;99.90;;;;;;5012262;28;20030;-90
2023/12/08 10:43:25;;;;;;;122.88;39.67;;;5.40;99.90;;;;;;5026883;28;20025;-89
2023/12/08 10:45:52;;;;;;;129.63;39.80;;;5.50;99.90;;;;;;5003475;28;20082;-91
2023/12/08 10:48:20;;;;;;;117.30;39.85;;;5.50;99.90;;;;;;5008539;28;20038;-91
2023/12/08 10:50:48;;;;;;;115.22;36.90;;;5.60;99.90;;;;;;5006750;28;20022;-90
2023/12/08 10:53:16;;;;;;;124.80;40.35;;;5.60;99.90;;;;;;5011599;28;20053;-91
2023/12/08 10:55:42;;;;;;;121.75;39.85;;;5.60;99.90;;;;;;5028348;28;20063;-90
2023/12/08 10:58:12;;;;;;;117.20;38.88;;;5.70;99.90;;;;;;5013117;28;20047;-90
2023/12/08 11:00:39;;;;;;;132.18;41.17;;;5.80;99.90;;;;;;5010908;28;20022;-91
2023/12/08 11:03:09;;;;;;;120.28;38.92;;;5.90;99.90;;;;;;5022618;28;20478;-91
2023/12/08 11:05:43;;;;;;;131.07;39.25;;;6.00;99.90;;;;;;5005319;28;20499;-90
2023/12/08 11:08:12;;;;;;;130.68;40.03;;;6.10;99.90;;;;;;5007250;28;20034;-90
2023/12/08 11:10:42;;;;;;;120.10;38.88;;;6.10;99.90;;;;;;5006333;28;20417;-90
2023/12/08 11:13:23;;;;;;;129.18;40.47;;;6.30;99.90;;;;;;5009865;28;20069;-91
2023/12/08 11:16:08;;;;;;;114.00;38.63;;;6.30;99.90;;;;;;5001322;28;20026;-90
2023/12/08 11:18:36;;;;;;;136.57;39.90;;;6.30;99.90;;;;;;5009465;28;20040;-90
2023/12/08 11:21:07;;;;;;;109.70;36.15;;;6.40;99.90;;;;;;5010273;28;20112;-91
2023/12/08 11:23:35;;;;;;;117.30;36.90;;;6.40;99.90;;;;;;5010655;28;20502;-91
2023/12/08 11:26:07;;;;;;;113.03;35.78;;;6.40;99.90;;;;;;5011784;28;20501;-90
2023/12/08 11:28:48;;;;;;;132.90;37.78;;;6.50;99.90;;;;;;5010411;28;20022;-90
2023/12/08 11:31:29;;;;;;;112.80;33.65;;;6.50;99.90;;;;;;5009194;28;20053;-91
2023/12/08 11:34:02;;;;;;;95.53;32.50;;;6.50;99.90;;;;;;5003736;28;20113;-90
2023/12/08 11:36:30;;;;;;;94.78;31.92;;;6.60;99.90;;;;;;5011303;28;20030;-91
2023/12/08 11:38:56;;;;;;;92.75;29.08;;;6.60;99.90;;;;;;5025999;28;20390;-91
2023/12/08 11:41:24;;;;;;;85.35;28.08;;;6.70;99.90;;;;;;5006368;28;20023;-91
2023/12/08 11:43:50;;;;;;;87.47;26.05;;;6.70;99.90;;;;;;5035079;28;20026;-91
2023/12/08 11:46:16;;;;;;;106.78;27.67;;;6.80;99.90;;;;;;5004666;28;20103;-91
2023/12/08 11:48:48;;;;;;;82.13;24.08;;;6.80;99.90;;;;;;5020023;28;20033;-92
2023/12/08 11:51:16;;;;;;;95.35;28.23;;;6.80;99.90;;;;;;5013591;28;20112;-92
2023/12/08 11:54:08;;;;;;;82.97;24.88;;;6.90;99.90;;;;;;5015250;28;20030;-92
2023/12/08 11:56:38;;;;;;;74.93;24.07;;;6.90;99.90;;;;;;5009789;28;20061;-92
2023/12/08 11:59:04;;;;;;;83.13;24.88;;;6.90;99.90;;;;;;5015364;28;20106;-93
2023/12/08 12:01:29;;;;;;;73.30;23.33;;;7.00;99.90;;;;;;5012421;28;20034;-91
2023/12/08 12:03:56;;;;;;;62.65;22.63;;;7.00;99.90;;;;;;4996632;28;20054;-92
2023/12/08 12:06:23;;;;;;;70.47;23.45;;;7.10;99.90;;;;;;5012017;28;20096;-92
2023/12/08 12:08:49;;;;;;;76.43;22.92;;;7.10;99.90;;;;;;5016711;28;20058;-92
2023/12/08 12:11:20;;;;;;;79.82;24.33;;;7.20;99.90;;;;;;5017385;28;20038;-91
2023/12/08 12:13:46;;;;;;;68.35;23.80;;;7.20;99.90;;;;;;5017064;28;20080;-91
2023/12/08 12:16:12;;;;;;;67.35;23.70;;;7.20;99.90;;;;;;5016597;28;20163;-92
2023/12/08 12:18:38;;;;;;;82.22;22.90;;;7.20;99.90;;;;;;5016846;28;20034;-92
2023/12/08 12:21:03;;;;;;;81.43;23.83;;;7.20;99.90;;;;;;5012327;28;20022;-91
2023/12/08 12:23:29;;;;;;;83.07;26.70;;;7.20;99.90;;;;;;5006539;28;20087;-91
2023/12/08 12:25:54;;;;;;;76.63;23.58;;;7.30;99.90;;;;;;5015038;28;20116;-91
2023/12/08 12:28:20;;;;;;;71.20;23.85;;;7.30;99.90;;;;;;5014965;28;20026;-92
2023/12/08 12:30:49;;;;;;;88.40;26.15;;;7.30;99.90;;;;;;5015298;28;20028;-92
2023/12/08 12:33:14;;;;;;;84.00;26.45;;;7.30;99.90;;;;;;5014784;28;20045;-92